createdAt,value
2022-10-05T00:09:11.852Z,14.50
2022-10-05T00:11:41.449Z,14.00
2022-10-05T00:14:19.718Z,13.00
2022-10-05T00:16:48.222Z,12.90
2022-10-05T00:19:24.715Z,13.10
2022-10-05T00:21:52.990Z,12.80
2022-10-05T00:24:21.944Z,13.40
2022-10-05T00:26:57.054Z,13.50
2022-10-05T00:29:26.393Z,13.20
2022-10-05T00:31:54.876Z,13.40
2022-10-05T00:34:23.167Z,13.70
2022-10-05T00:39:21.675Z,13.70
2022-10-05T00:42:26.143Z,13.80
2022-10-05T00:45:02.620Z,13.50
2022-10-05T00:47:39.511Z,14.40
2022-10-05T00:50:48.427Z,14.70
2022-10-05T00:56:04.612Z,14.90
2022-10-05T00:58:53.268Z,14.20
2022-10-05T01:01:32.052Z,14.70
2022-10-05T01:04:14.368Z,14.20
2022-10-05T01:06:57.169Z,14.10
2022-10-05T01:09:34.849Z,14.40
2022-10-05T01:12:10.488Z,14.50
2022-10-05T01:14:51.510Z,14.00
2022-10-05T01:17:27.920Z,14.10
2022-10-05T01:20:28.267Z,13.90
2022-10-05T01:23:30.249Z,14.00
2022-10-05T01:26:18.523Z,13.40
2022-10-05T01:28:55.261Z,13.40
2022-10-05T01:31:29.586Z,13.60
2022-10-05T01:34:11.327Z,13.40
2022-10-05T01:36:50.822Z,13.20
2022-10-05T01:39:26.653Z,13.10
2022-10-05T01:42:06.431Z,13.40
2022-10-05T01:44:45.448Z,13.20
2022-10-05T01:47:22.589Z,13.60
2022-10-05T01:50:01.269Z,13.60
2022-10-05T01:52:40.841Z,13.60
2022-10-05T01:55:23.729Z,13.20
2022-10-05T01:58:12.017Z,12.90
2022-10-05T02:00:51.867Z,13.00
2022-10-05T02:03:25.617Z,13.20
2022-10-05T02:06:00.233Z,13.30
2022-10-05T02:08:38.285Z,13.30
2022-10-05T02:11:10.103Z,13.50
2022-10-05T02:13:44.034Z,13.20
2022-10-05T02:16:18.696Z,13.80
2022-10-05T02:18:53.193Z,13.10
2022-10-05T02:21:22.386Z,13.40
2022-10-05T02:23:56.661Z,13.60
2022-10-05T02:26:27.147Z,13.20
2022-10-05T02:29:00.396Z,13.50
2022-10-05T02:31:38.407Z,13.70
2022-10-05T02:34:28.279Z,14.20
2022-10-05T02:37:17.893Z,13.50
2022-10-05T02:40:03.598Z,13.00
2022-10-05T02:42:39.661Z,13.30
2022-10-05T02:45:24.015Z,13.20
2022-10-05T02:48:06.078Z,13.00
2022-10-05T02:53:26.630Z,13.40
2022-10-05T02:56:09.569Z,13.40
2022-10-05T02:58:46.773Z,12.90
2022-10-05T03:01:26.188Z,13.00
2022-10-05T03:04:05.515Z,13.60
2022-10-05T03:06:43.214Z,13.40
2022-10-05T03:09:11.828Z,12.90
2022-10-05T03:11:50.077Z,13.10
2022-10-05T03:14:24.610Z,13.10
2022-10-05T03:17:07.651Z,13.30
2022-10-05T03:20:20.228Z,13.60
2022-10-05T03:22:56.201Z,13.20
2022-10-05T03:25:59.711Z,13.20
2022-10-05T03:28:36.259Z,13.40
2022-10-05T03:31:13.070Z,13.50
2022-10-05T03:33:46.273Z,13.60
2022-10-05T03:36:23.808Z,13.60
2022-10-05T03:38:59.807Z,13.50
2022-10-05T03:41:36.104Z,13.50
2022-10-05T03:44:24.528Z,13.50
2022-10-05T03:47:13.499Z,13.60
2022-10-05T03:50:05.707Z,13.50
2022-10-05T03:52:40.769Z,13.30
2022-10-05T03:55:20.687Z,13.20
2022-10-05T03:57:52.016Z,13.30
2022-10-05T04:00:23.892Z,13.20
2022-10-05T04:02:59.291Z,13.30
2022-10-05T04:05:33.447Z,13.30
2022-10-05T04:08:08.302Z,13.40
2022-10-05T04:10:45.059Z,13.30
2022-10-05T04:13:18.785Z,13.80
2022-10-05T04:15:54.651Z,13.70
2022-10-05T04:18:31.037Z,13.80
2022-10-05T04:21:04.679Z,14.00
2022-10-05T04:23:47.314Z,13.80
2022-10-05T04:26:20.713Z,13.40
2022-10-05T04:28:57.190Z,13.50
2022-10-05T04:31:46.826Z,13.30
2022-10-05T04:34:40.513Z,13.80
2022-10-05T04:37:15.667Z,13.30
2022-10-05T04:39:58.997Z,13.30
2022-10-05T04:42:35.520Z,13.10
2022-10-05T04:45:15.569Z,13.60
2022-10-05T04:48:25.274Z,13.70
2022-10-05T04:51:11.191Z,13.50
2022-10-05T04:53:52.268Z,13.40
2022-10-05T04:56:31.814Z,13.20
2022-10-05T04:59:24.897Z,13.40
2022-10-05T05:02:09.499Z,13.60
2022-10-05T05:05:20.562Z,13.60
2022-10-05T05:07:56.685Z,14.00
2022-10-05T05:11:10.350Z,14.00
2022-10-05T05:14:23.732Z,13.60
2022-10-05T05:17:07.605Z,14.20
2022-10-05T05:19:52.586Z,13.80
2022-10-05T05:22:30.303Z,13.60
2022-10-05T05:25:21.139Z,13.80
2022-10-05T05:27:54.871Z,13.70
2022-10-05T05:30:34.860Z,13.60
2022-10-05T05:33:18.857Z,14.10
2022-10-05T05:36:35.749Z,13.40
2022-10-05T05:39:22.925Z,14.20
2022-10-05T05:42:00.489Z,13.70
2022-10-05T05:44:37.825Z,14.30
2022-10-05T05:47:19.558Z,13.70
2022-10-05T05:50:17.637Z,13.80
2022-10-05T05:52:50.570Z,13.40
2022-10-05T05:55:29.062Z,13.80
2022-10-05T05:58:05.596Z,13.90
2022-10-05T06:00:42.113Z,13.50
2022-10-05T06:03:20.060Z,13.90
2022-10-05T06:05:52.268Z,13.80
2022-10-05T06:08:30.901Z,13.80
2022-10-05T06:11:06.333Z,13.80
2022-10-05T06:13:38.586Z,14.30
2022-10-05T06:16:18.591Z,14.10
2022-10-05T06:18:54.981Z,13.90
2022-10-05T06:21:32.845Z,14.10
2022-10-05T06:24:05.761Z,14.20
2022-10-05T06:27:13.178Z,14.00
2022-10-05T06:30:01.492Z,14.10
2022-10-05T06:32:34.396Z,14.10
2022-10-05T06:35:18.201Z,14.00
2022-10-05T06:38:06.187Z,13.90
2022-10-05T06:40:49.070Z,13.70
2022-10-05T06:43:44.481Z,14.40
2022-10-05T06:46:20.309Z,14.20
2022-10-05T06:49:20.483Z,13.90
2022-10-05T06:51:56.785Z,14.20
2022-10-05T06:54:42.632Z,14.30
2022-10-05T06:57:27.951Z,14.40
2022-10-05T07:00:03.083Z,14.00
2022-10-05T07:02:44.337Z,14.00
2022-10-05T07:06:04.312Z,14.10
2022-10-05T07:08:55.359Z,14.50
2022-10-05T07:11:54.304Z,14.30
2022-10-05T07:14:50.320Z,14.40
2022-10-05T07:17:35.357Z,14.90
2022-10-05T07:20:16.971Z,14.70
2022-10-05T07:23:05.259Z,14.70
2022-10-05T07:25:42.759Z,14.30
2022-10-05T07:28:17.724Z,14.30
2022-10-05T07:30:57.642Z,14.40
2022-10-05T07:33:31.317Z,14.30
2022-10-05T07:36:29.035Z,14.40
2022-10-05T07:39:03.549Z,14.40
2022-10-05T07:41:43.646Z,14.70
2022-10-05T07:44:18.673Z,14.40
2022-10-05T07:46:54.430Z,14.70
2022-10-05T07:49:41.127Z,14.60
2022-10-05T07:52:18.045Z,14.60
2022-10-05T07:54:59.286Z,14.50
2022-10-05T07:57:39.992Z,14.70
2022-10-05T08:00:15.114Z,14.60
2022-10-05T08:02:50.325Z,14.60
2022-10-05T08:05:26.208Z,14.80
2022-10-05T08:08:05.637Z,15.10
2022-10-05T08:10:42.677Z,15.20
2022-10-05T08:13:22.911Z,15.10
2022-10-05T08:15:56.430Z,15.10
2022-10-05T08:18:45.345Z,15.50
2022-10-05T08:21:16.932Z,15.10
2022-10-05T08:23:51.602Z,15.10
2022-10-05T08:26:29.781Z,15.20
2022-10-05T08:29:16.981Z,15.20
2022-10-05T08:31:50.617Z,15.40
2022-10-05T08:34:27.099Z,15.20
2022-10-05T08:37:05.796Z,15.40
2022-10-05T08:39:41.265Z,15.30
2022-10-05T08:49:34.858Z,15.50
2022-10-05T08:52:28.852Z,15.50
2022-10-05T08:55:34.845Z,15.60
2022-10-05T08:58:50.447Z,15.60
2022-10-05T09:01:30.228Z,15.60
2022-10-05T09:04:39.839Z,15.60
2022-10-05T09:07:25.284Z,15.80
2022-10-05T09:10:53.723Z,15.60
2022-10-05T09:13:58.006Z,15.60
2022-10-05T09:20:11.576Z,16.00
2022-10-05T09:23:00.134Z,16.20
2022-10-05T09:25:55.362Z,16.40
2022-10-05T09:34:39.005Z,16.20
2022-10-05T10:31:25.890Z,16.40
2022-10-05T10:34:18.834Z,17.60
2022-10-05T10:40:36.719Z,17.60
2022-10-05T10:43:42.148Z,17.90
2022-10-05T10:46:29.461Z,17.80
2022-10-05T10:49:07.160Z,18.00
2022-10-05T11:48:06.544Z,19.70
2022-10-05T11:50:43.339Z,19.70
2022-10-05T11:53:20.354Z,19.70
2022-10-05T11:56:01.460Z,19.90
2022-10-05T11:58:34.979Z,19.80
2022-10-05T12:01:17.499Z,19.80
2022-10-05T12:03:59.691Z,19.90
2022-10-05T12:06:50.369Z,19.90
2022-10-05T12:10:03.612Z,20.00
2022-10-05T12:12:39.462Z,20.00
2022-10-05T12:15:23.465Z,19.90
2022-10-05T12:18:01.371Z,20.00
2022-10-05T12:20:40.958Z,20.00
2022-10-05T12:23:18.945Z,19.90
2022-10-05T12:25:53.775Z,20.10
2022-10-05T12:28:30.980Z,20.10
2022-10-05T12:31:21.065Z,20.00
2022-10-05T12:34:00.191Z,20.10
2022-10-05T12:37:03.188Z,20.40
2022-10-05T12:39:40.402Z,20.40
2022-10-05T12:42:26.020Z,20.40
2022-10-05T12:48:20.463Z,20.40
2022-10-05T12:50:52.129Z,20.50
2022-10-05T12:53:41.951Z,20.60
2022-10-05T12:56:21.622Z,20.60
2022-10-05T12:58:57.439Z,20.60
2022-10-05T13:01:39.724Z,20.60
2022-10-05T13:15:17.180Z,20.60
2022-10-05T13:17:55.879Z,21.10
2022-10-05T13:20:31.298Z,21.00
2022-10-05T13:23:08.549Z,21.10
2022-10-05T13:28:22.999Z,21.10
2022-10-05T13:31:01.701Z,21.50
2022-10-05T13:34:06.943Z,21.60
2022-10-05T13:36:48.073Z,21.60
2022-10-05T13:39:28.442Z,21.70
2022-10-05T13:42:05.350Z,21.60
2022-10-05T13:44:42.974Z,21.60
2022-10-05T13:52:48.517Z,21.70
2022-10-05T13:55:39.328Z,21.90
2022-10-05T13:58:19.985Z,21.90
2022-10-05T14:00:52.585Z,21.80
2022-10-05T14:03:32.299Z,21.90
2022-10-05T14:06:03.667Z,21.90
2022-10-05T14:08:35.331Z,21.80
2022-10-05T14:11:26.568Z,21.70
2022-10-05T14:14:13.543Z,21.80
2022-10-05T14:16:52.083Z,21.80
2022-10-05T14:19:26.883Z,22.00
2022-10-05T14:22:02.320Z,22.00
2022-10-05T14:27:24.552Z,22.00
2022-10-05T14:30:18.132Z,22.10
2022-10-05T14:32:55.987Z,22.10
2022-10-05T14:35:27.374Z,22.10
2022-10-05T14:38:02.242Z,22.00
2022-10-05T14:40:35.391Z,22.20
2022-10-05T14:43:20.556Z,22.20
2022-10-05T14:45:59.476Z,22.10
2022-10-05T14:48:30.264Z,22.20
2022-10-05T14:51:03.457Z,22.20
2022-10-05T14:53:41.244Z,22.30
2022-10-05T14:56:36.547Z,22.20
2022-10-05T14:59:30.157Z,22.00
2022-10-05T15:02:24.350Z,21.80
2022-10-05T15:05:02.341Z,21.60
2022-10-05T15:07:38.496Z,21.60
2022-10-05T15:10:29.492Z,21.50
2022-10-05T15:13:11.240Z,21.40
2022-10-05T15:15:50.364Z,21.30
2022-10-05T15:18:32.338Z,21.40
2022-10-05T15:21:31.150Z,21.40
2022-10-05T15:24:04.601Z,21.30
2022-10-05T15:26:48.750Z,21.40
2022-10-05T15:29:35.158Z,21.40
2022-10-05T15:32:18.181Z,21.40
2022-10-05T15:35:04.050Z,21.20
2022-10-05T15:37:43.091Z,21.20
2022-10-05T15:40:23.427Z,21.20
2022-10-05T15:42:57.038Z,21.10
2022-10-05T15:45:33.922Z,21.10
2022-10-05T15:48:08.866Z,21.10
2022-10-05T15:50:50.542Z,21.10
2022-10-05T15:53:26.301Z,21.10
2022-10-05T15:55:59.598Z,21.10
2022-10-05T15:58:55.678Z,21.10
2022-10-05T16:01:47.235Z,21.10
2022-10-05T16:04:24.431Z,21.10
2022-10-05T16:07:17.448Z,21.00
2022-10-05T16:09:57.764Z,21.00
2022-10-05T16:12:51.829Z,20.90
2022-10-05T16:15:28.853Z,20.80
2022-10-05T16:18:37.254Z,20.80
2022-10-05T16:21:18.864Z,20.80
2022-10-05T16:24:06.834Z,20.70
2022-10-05T16:26:55.777Z,20.60
2022-10-05T16:29:39.915Z,20.50
2022-10-05T16:32:15.011Z,20.50
2022-10-05T16:34:59.317Z,20.50
2022-10-05T16:37:41.025Z,20.40
2022-10-05T16:40:26.616Z,20.30
2022-10-05T16:43:06.935Z,20.30
2022-10-05T16:45:52.103Z,20.20
2022-10-05T16:48:27.279Z,20.20
2022-10-05T16:51:34.033Z,20.10
2022-10-05T16:54:19.125Z,19.90
2022-10-05T16:56:52.192Z,19.90
2022-10-05T17:00:14.869Z,19.70
2022-10-05T17:03:14.933Z,19.50
2022-10-05T17:06:18.297Z,19.50
2022-10-05T17:09:20.272Z,19.30
2022-10-05T17:12:14.002Z,19.10
2022-10-05T17:14:56.142Z,19.10
2022-10-05T17:18:11.213Z,19.00
2022-10-05T17:20:50.696Z,18.90
2022-10-05T17:23:32.062Z,18.70
2022-10-05T17:26:17.158Z,18.90
2022-10-05T17:29:01.818Z,19.10
2022-10-05T17:31:31.247Z,19.10
2022-10-05T17:34:27.283Z,19.00
2022-10-05T17:37:15.758Z,19.00
2022-10-05T17:39:51.507Z,19.00
2022-10-05T17:42:48.533Z,19.20
2022-10-05T17:45:53.953Z,19.10
2022-10-05T17:49:02.409Z,19.10
2022-10-05T17:52:23.641Z,19.00
2022-10-05T17:55:47.166Z,19.00
2022-10-05T17:59:02.050Z,18.90
2022-10-05T18:01:37.520Z,19.00
2022-10-05T18:04:39.617Z,19.10
2022-10-05T18:07:22.904Z,19.00
2022-10-05T18:10:22.425Z,19.00
2022-10-05T18:13:33.927Z,18.90
2022-10-05T18:16:02.325Z,18.90
2022-10-05T18:18:58.006Z,18.60
2022-10-05T18:21:37.748Z,18.70
2022-10-05T18:24:42.105Z,18.70
2022-10-05T18:27:38.292Z,18.80
2022-10-05T18:30:20.430Z,18.80
2022-10-05T18:33:45.482Z,18.90
2022-10-05T18:37:01.226Z,18.70
2022-10-05T18:39:59.295Z,18.70
2022-10-05T18:42:39.475Z,18.70
2022-10-05T18:45:23.628Z,18.90
2022-10-05T18:48:10.314Z,18.80
2022-10-05T18:50:47.573Z,18.80
2022-10-05T18:53:29.948Z,18.90
2022-10-05T18:56:11.171Z,19.00
2022-10-05T18:58:56.757Z,19.00
2022-10-05T19:02:03.589Z,18.90
2022-10-05T19:04:52.116Z,19.00
2022-10-05T19:07:37.074Z,19.00
2022-10-05T19:10:18.540Z,18.80
2022-10-05T19:13:05.015Z,18.90
2022-10-05T19:15:44.372Z,18.70
2022-10-05T19:18:47.436Z,18.90
2022-10-05T19:21:29.504Z,18.90
2022-10-05T19:24:31.197Z,18.80
2022-10-05T19:27:10.606Z,19.00
2022-10-05T19:30:05.077Z,19.10
2022-10-05T19:32:47.640Z,19.10
2022-10-05T19:35:26.449Z,19.00
2022-10-05T19:38:15.182Z,19.00
2022-10-05T19:40:56.585Z,19.00
2022-10-05T19:43:51.095Z,19.20
2022-10-05T19:46:34.625Z,19.00
2022-10-05T19:49:02.915Z,18.90
2022-10-05T19:51:33.967Z,18.90
2022-10-05T19:54:10.408Z,19.10
2022-10-05T19:56:50.990Z,18.80
2022-10-05T19:59:22.291Z,18.80
2022-10-05T20:01:54.026Z,18.90
2022-10-05T20:04:36.556Z,19.10
2022-10-05T20:07:05.576Z,19.00
2022-10-05T20:09:54.114Z,18.90
2022-10-05T20:12:24.014Z,18.80
2022-10-05T20:15:26.853Z,18.90
2022-10-05T20:18:12.834Z,18.70
2022-10-05T20:20:45.814Z,18.70
2022-10-05T20:23:25.097Z,18.60
2022-10-05T20:26:11.744Z,18.70
2022-10-05T20:28:41.480Z,18.70
2022-10-05T20:31:10.021Z,18.70
2022-10-05T20:33:40.240Z,18.70
2022-10-05T20:36:08.956Z,18.50
2022-10-05T20:38:40.870Z,18.80
2022-10-05T20:41:09.851Z,18.80
2022-10-05T20:43:39.344Z,19.00
2022-10-05T20:46:09.040Z,19.10
2022-10-05T20:48:37.195Z,19.20
2022-10-05T20:51:05.801Z,19.20
2022-10-05T20:53:33.993Z,19.20
2022-10-05T20:56:02.500Z,19.10
2022-10-05T20:58:31.201Z,19.10
2022-10-05T21:01:19.988Z,19.20
2022-10-05T21:03:50.532Z,19.20
2022-10-05T21:06:19.006Z,19.40
2022-10-05T21:08:47.216Z,19.00
2022-10-05T21:11:15.677Z,19.20
2022-10-05T21:13:44.770Z,19.20
2022-10-05T21:16:14.013Z,19.40
2022-10-05T21:18:44.376Z,19.20
2022-10-05T21:21:14.637Z,19.50
2022-10-05T21:23:42.793Z,19.10
2022-10-05T21:26:11.728Z,19.20
2022-10-05T21:28:40.288Z,19.20
2022-10-05T21:31:09.514Z,19.40
2022-10-05T21:33:37.961Z,19.10
2022-10-05T21:36:06.479Z,19.20
2022-10-05T21:38:36.021Z,19.10
2022-10-05T21:46:01.919Z,17.90
2022-10-05T21:48:32.104Z,18.00
2022-10-05T21:51:01.159Z,18.40
2022-10-05T21:53:34.377Z,17.90
2022-10-05T21:56:06.828Z,18.00
2022-10-05T21:58:35.699Z,18.00
2022-10-05T22:01:04.180Z,18.20
2022-10-05T22:03:32.894Z,17.90
2022-10-05T22:06:01.154Z,17.90
2022-10-05T22:08:33.844Z,17.80
2022-10-05T22:11:11.843Z,17.70
2022-10-05T22:13:46.252Z,17.80
2022-10-05T22:16:15.767Z,17.80
2022-10-05T22:18:44.348Z,17.70
2022-10-05T22:21:14.479Z,17.30
2022-10-05T22:23:45.167Z,17.40
2022-10-05T22:26:19.265Z,17.70
2022-10-05T22:28:48.747Z,17.40
2022-10-05T22:31:18.945Z,17.60
2022-10-05T22:33:47.178Z,17.50
2022-10-05T22:36:15.442Z,17.50
2022-10-05T22:38:44.762Z,17.70
2022-10-05T22:41:18.260Z,17.90
2022-10-05T22:43:50.167Z,17.30
2022-10-05T22:46:19.902Z,17.20
2022-10-05T22:48:48.253Z,17.20
2022-10-05T22:51:16.464Z,17.50
2022-10-05T22:53:44.624Z,18.00
2022-10-05T22:56:15.325Z,17.80
2022-10-05T22:58:45.029Z,17.60
2022-10-05T23:01:16.039Z,17.40
2022-10-05T23:03:45.048Z,17.50
2022-10-05T23:06:16.158Z,16.20
2022-10-05T23:08:45.977Z,16.40
2022-10-05T23:11:17.993Z,16.70
2022-10-05T23:13:46.272Z,16.90
2022-10-05T23:16:17.263Z,16.30
2022-10-05T23:18:46.767Z,16.90
2022-10-05T23:21:15.338Z,15.80
2022-10-05T23:23:47.353Z,16.20
2022-10-05T23:26:19.977Z,16.40
2022-10-05T23:28:49.022Z,16.10
2022-10-05T23:31:20.268Z,16.40
2022-10-05T23:33:49.207Z,15.30
2022-10-05T23:36:20.194Z,15.70
2022-10-05T23:38:49.024Z,15.00
2022-10-05T23:41:19.660Z,15.70
2022-10-05T23:43:48.336Z,15.70
2022-10-05T23:46:17.689Z,15.70
2022-10-05T23:48:46.074Z,15.40
2022-10-05T23:51:15.924Z,16.10
2022-10-05T23:53:44.549Z,15.80
2022-10-05T23:56:13.246Z,16.00
2022-10-05T23:58:42.881Z,16.20
